createdAt,value
2023-03-21T00:01:30.012Z,101400.78
2023-03-21T00:03:56.975Z,101405.13
2023-03-21T00:06:23.938Z,101393.81
2023-03-21T00:08:51.172Z,101396.41
2023-03-21T00:11:18.277Z,101398.19
2023-03-21T00:13:45.238Z,101390.31
2023-03-21T00:16:24.391Z,101393.81
2023-03-21T00:18:58.376Z,101391.19
2023-03-21T00:24:15.463Z,101388.59
2023-03-21T00:26:42.356Z,101387.72
2023-03-21T00:29:09.518Z,101379.00
2023-03-21T00:31:36.486Z,101376.38
2023-03-21T00:34:04.227Z,101373.75
2023-03-21T00:36:31.959Z,101373.75
2023-03-21T00:39:00.782Z,101375.47
2023-03-21T00:41:41.590Z,101371.94
2023-03-21T00:44:13.706Z,101364.97
2023-03-21T00:46:47.235Z,101369.31
2023-03-21T00:49:16.268Z,101371.00
2023-03-21T00:51:43.719Z,101371.00
2023-03-21T00:54:12.518Z,101370.97
2023-03-21T00:56:41.220Z,101364.81
2023-03-21T00:59:08.116Z,101368.28
2023-03-21T01:01:36.580Z,101371.75
2023-03-21T01:04:07.658Z,101363.03
2023-03-21T01:06:39.524Z,101363.06
2023-03-21T01:09:11.147Z,101359.53
2023-03-21T01:11:38.096Z,101369.97
2023-03-21T01:14:20.770Z,101360.41
2023-03-21T01:16:49.442Z,101364.75
2023-03-21T01:19:27.611Z,101359.53
2023-03-21T01:21:58.561Z,101353.44
2023-03-21T01:24:25.860Z,101358.72
2023-03-21T01:26:52.772Z,101361.31
2023-03-21T01:29:19.760Z,101363.06
2023-03-21T01:31:46.731Z,101356.09
2023-03-21T01:34:13.699Z,101359.59
2023-03-21T01:36:41.545Z,101354.38
2023-03-21T01:39:14.084Z,101355.25
2023-03-21T01:41:44.374Z,101356.06
2023-03-21T01:44:23.319Z,101360.47
2023-03-21T01:47:07.382Z,101353.53
2023-03-21T01:49:59.582Z,101359.56
2023-03-21T01:52:38.719Z,101355.22
2023-03-21T01:55:12.418Z,101361.31
2023-03-21T01:58:07.013Z,101353.47
2023-03-21T02:00:51.358Z,101355.22
2023-03-21T02:03:49.999Z,101356.97
2023-03-21T02:06:57.654Z,101353.50
2023-03-21T02:09:49.294Z,101356.06
2023-03-21T02:12:20.232Z,101349.13
2023-03-21T02:14:50.025Z,101347.31
2023-03-21T02:17:41.937Z,101348.25
2023-03-21T02:20:58.514Z,101343.00
2023-03-21T02:24:29.542Z,101357.72
2023-03-21T02:27:15.819Z,101363.75
2023-03-21T02:30:49.027Z,101356.78
2023-03-21T02:33:46.574Z,101351.56
2023-03-21T02:36:27.902Z,101357.66
2023-03-21T02:39:07.921Z,101348.97
2023-03-21T02:42:21.550Z,101348.94
2023-03-21T02:45:03.149Z,101342.78
2023-03-21T02:48:10.053Z,101350.66
2023-03-21T02:50:49.353Z,101348.97
2023-03-21T02:53:22.720Z,101343.72
2023-03-21T02:55:52.914Z,101348.09
2023-03-21T02:58:23.534Z,101348.97
2023-03-21T03:00:56.246Z,101349.81
2023-03-21T03:03:34.430Z,101348.09
2023-03-21T03:06:27.655Z,101349.78
2023-03-21T03:09:07.602Z,101355.88
2023-03-21T03:11:42.847Z,101352.34
2023-03-21T03:14:46.943Z,101348.03
2023-03-21T03:17:52.699Z,101349.72
2023-03-21T03:20:53.856Z,101356.69
2023-03-21T03:23:41.989Z,101353.97
2023-03-21T03:26:13.945Z,101352.19
2023-03-21T03:28:47.854Z,101353.06
2023-03-21T03:31:26.043Z,101337.34
2023-03-21T03:34:07.123Z,101341.69
2023-03-21T03:36:43.617Z,101349.53
2023-03-21T03:39:15.487Z,101342.50
2023-03-21T03:42:21.877Z,101350.34
2023-03-21T03:44:42.283Z,101347.75
2023-03-21T03:47:32.385Z,101345.97
2023-03-21T03:50:27.715Z,101341.56
2023-03-21T03:53:09.891Z,101347.66
2023-03-21T03:55:44.162Z,101344.22
2023-03-21T03:58:23.575Z,101342.41
2023-03-21T04:00:54.285Z,101342.44
2023-03-21T04:03:21.993Z,101343.28
2023-03-21T04:05:50.351Z,101350.25
2023-03-21T04:08:17.693Z,101345.91
2023-03-21T04:10:50.228Z,101343.28
2023-03-21T04:13:17.944Z,101332.78
2023-03-21T04:15:51.957Z,101349.31
2023-03-21T04:18:18.916Z,101343.19
2023-03-21T04:20:48.455Z,101344.91
2023-03-21T04:23:16.257Z,101326.50
2023-03-21T04:25:55.898Z,101348.34
2023-03-21T04:28:27.520Z,101353.50
2023-03-21T04:31:16.085Z,101350.91
2023-03-21T04:33:51.368Z,101345.66
2023-03-21T04:36:27.474Z,101349.09
2023-03-21T04:39:01.478Z,101348.22
2023-03-21T04:41:29.625Z,101348.19
2023-03-21T04:43:57.234Z,101345.59
2023-03-21T04:46:24.539Z,101345.59
2023-03-21T04:48:51.817Z,101355.13
2023-03-21T04:51:18.742Z,101356.00
2023-03-21T04:53:49.312Z,101355.13
2023-03-21T04:56:16.527Z,101356.88
2023-03-21T04:58:45.344Z,101356.00
2023-03-21T05:01:14.457Z,101349.06
2023-03-21T05:03:42.396Z,101349.06
2023-03-21T05:06:10.278Z,101357.72
2023-03-21T05:08:37.418Z,101344.59
2023-03-21T05:11:05.549Z,101357.66
2023-03-21T05:13:32.545Z,101351.56
2023-03-21T05:15:59.442Z,101353.34
2023-03-21T05:18:26.669Z,101357.69
2023-03-21T05:21:10.757Z,101355.09
2023-03-21T05:23:39.542Z,101361.16
2023-03-21T05:26:08.337Z,101359.47
2023-03-21T05:28:44.549Z,101350.75
2023-03-21T05:31:15.747Z,101353.34
2023-03-21T05:33:45.390Z,101355.97
2023-03-21T05:36:16.096Z,101353.34
2023-03-21T05:38:45.680Z,101359.44
2023-03-21T05:41:15.463Z,101355.13
2023-03-21T05:43:42.606Z,101352.53
2023-03-21T05:46:11.860Z,101357.78
2023-03-21T05:48:39.263Z,101349.97
2023-03-21T05:51:15.212Z,101350.88
2023-03-21T05:53:42.216Z,101344.72
2023-03-21T05:56:09.837Z,101350.88
2023-03-21T05:58:50.589Z,101353.47
2023-03-21T06:01:18.827Z,101343.91
2023-03-21T06:03:55.715Z,101347.34
2023-03-21T06:06:24.350Z,101331.69
2023-03-21T06:09:00.923Z,101350.06
2023-03-21T06:11:33.247Z,101345.69
2023-03-21T06:14:21.080Z,101347.53
2023-03-21T06:17:05.995Z,101347.56
2023-03-21T06:19:35.876Z,101348.53
2023-03-21T06:22:07.456Z,101351.16
2023-03-21T06:24:38.080Z,101353.81
2023-03-21T06:27:05.410Z,101350.34
2023-03-21T06:29:46.333Z,101353.91
2023-03-21T06:32:13.761Z,101357.41
2023-03-21T06:34:41.236Z,101356.56
2023-03-21T06:37:10.015Z,101352.31
2023-03-21T06:39:37.508Z,101354.91
2023-03-21T06:42:04.661Z,101351.44
2023-03-21T06:44:31.553Z,101353.22
2023-03-21T06:47:03.515Z,101353.22
2023-03-21T06:49:30.859Z,101348.97
2023-03-21T06:52:05.263Z,101362.88
2023-03-21T06:54:32.295Z,101358.53
2023-03-21T06:57:02.663Z,101358.59
2023-03-21T06:59:33.525Z,101365.53
2023-03-21T07:02:07.246Z,101365.56
2023-03-21T07:04:40.581Z,101362.97
2023-03-21T07:07:12.469Z,101363.88
2023-03-21T07:09:40.823Z,101366.53
2023-03-21T07:12:07.872Z,101362.19
2023-03-21T07:14:55.222Z,101369.22
2023-03-21T07:17:22.159Z,101375.34
2023-03-21T07:19:49.055Z,101365.75
2023-03-21T07:22:18.557Z,101375.47
2023-03-21T07:24:55.941Z,101367.63
2023-03-21T07:27:26.132Z,101373.78
2023-03-21T07:29:53.036Z,101380.78
2023-03-21T07:32:19.942Z,101381.69
2023-03-21T07:34:46.965Z,101376.44
2023-03-21T07:37:14.108Z,101375.63
2023-03-21T07:39:41.140Z,101375.63
2023-03-21T07:44:40.336Z,101379.16
2023-03-21T07:47:07.249Z,101373.03
2023-03-21T07:49:34.150Z,101377.47
2023-03-21T07:52:04.306Z,101375.72
2023-03-21T07:54:31.871Z,101373.09
2023-03-21T07:56:58.798Z,101380.09
2023-03-21T07:59:25.731Z,101365.34
2023-03-21T08:01:52.681Z,101376.69
2023-03-21T08:04:19.587Z,101370.59
2023-03-21T08:06:46.545Z,101368.91
2023-03-21T08:09:13.444Z,101367.22
2023-03-21T08:11:41.246Z,101375.06
2023-03-21T08:14:08.178Z,101372.50
2023-03-21T08:16:35.134Z,101376.03
2023-03-21T08:19:02.139Z,101378.69
2023-03-21T08:21:29.086Z,101375.25
2023-03-21T08:23:55.969Z,101381.41
2023-03-21T08:26:25.145Z,101382.25
2023-03-21T08:28:52.308Z,101379.72
2023-03-21T08:31:21.779Z,101381.53
2023-03-21T08:33:53.704Z,101381.59
2023-03-21T08:36:22.328Z,101385.09
2023-03-21T08:38:53.956Z,101388.59
2023-03-21T08:41:22.136Z,101388.59
2023-03-21T08:43:49.564Z,101387.75
2023-03-21T08:46:16.804Z,101386.03
2023-03-21T08:48:43.773Z,101385.16
2023-03-21T08:51:10.706Z,101390.41
2023-03-21T08:53:38.025Z,101386.09
2023-03-21T08:56:05.061Z,101375.59
2023-03-21T08:58:31.982Z,101389.63
2023-03-21T09:00:58.855Z,101392.28
2023-03-21T09:03:27.354Z,101390.56
2023-03-21T09:05:54.928Z,101386.22
2023-03-21T09:08:23.511Z,101377.50
2023-03-21T09:10:54.313Z,101387.16
2023-03-21T09:13:21.610Z,101380.19
2023-03-21T09:15:48.556Z,101378.50
2023-03-21T09:18:18.085Z,101373.31
2023-03-21T09:20:47.256Z,101379.47
2023-03-21T09:23:15.269Z,101362.94
2023-03-21T09:25:45.415Z,101369.97
2023-03-21T09:28:13.163Z,101361.25
2023-03-21T09:30:40.180Z,101363.03
2023-03-21T09:33:08.851Z,101355.22
2023-03-21T09:35:36.251Z,101360.47
2023-03-21T09:38:04.067Z,101358.78
2023-03-21T09:41:17.055Z,101358.78
2023-03-21T09:44:24.621Z,101358.78
2023-03-21T09:47:28.902Z,101354.44
2023-03-21T09:50:13.578Z,101357.97
2023-03-21T09:52:58.163Z,101353.59
2023-03-21T09:55:34.759Z,101353.63
2023-03-21T09:58:15.206Z,101358.00
2023-03-21T10:00:48.080Z,101353.63
2023-03-21T10:03:27.392Z,101346.66
2023-03-21T10:06:00.667Z,101351.00
2023-03-21T10:08:41.462Z,101346.69
2023-03-21T10:11:24.800Z,101347.56
2023-03-21T10:14:03.366Z,101352.78
2023-03-21T10:16:40.813Z,101344.06
2023-03-21T10:19:15.289Z,101343.19
2023-03-21T10:22:00.369Z,101351.03
2023-03-21T10:24:31.073Z,101345.78
2023-03-21T10:26:58.132Z,101342.28
2023-03-21T10:29:32.963Z,101339.72
2023-03-21T10:32:00.484Z,101339.72
2023-03-21T10:34:49.102Z,101333.63
2023-03-21T10:37:16.863Z,101334.47
2023-03-21T10:39:48.787Z,101329.25
2023-03-21T10:42:24.904Z,101328.38
2023-03-21T10:44:56.397Z,101327.50
2023-03-21T10:47:30.784Z,101327.50
2023-03-21T10:50:09.829Z,101308.28
2023-03-21T10:52:45.545Z,101323.13
2023-03-21T10:55:26.095Z,101310.91
2023-03-21T10:58:18.730Z,101312.66
2023-03-21T11:00:46.484Z,101308.28
2023-03-21T11:03:24.992Z,101311.78
2023-03-21T11:06:01.778Z,101298.66
2023-03-21T11:08:29.611Z,101302.19
2023-03-21T11:11:05.678Z,101296.03
2023-03-21T11:13:44.567Z,101299.56
2023-03-21T11:16:23.240Z,101294.31
2023-03-21T11:18:52.819Z,101299.53
2023-03-21T11:21:21.622Z,101293.44
2023-03-21T11:23:52.775Z,101286.47
2023-03-21T11:26:30.682Z,101304.78
2023-03-21T11:28:58.208Z,101296.06
2023-03-21T11:31:40.094Z,101309.16
2023-03-21T11:34:09.156Z,101295.22
2023-03-21T11:36:39.177Z,101283.84
2023-03-21T11:39:31.637Z,101285.59
2023-03-21T11:41:58.626Z,101280.38
2023-03-21T11:44:35.687Z,101279.47
2023-03-21T11:47:03.111Z,101278.59
2023-03-21T11:49:31.008Z,101274.25
2023-03-21T11:52:12.391Z,101272.47
2023-03-21T11:55:19.018Z,101275.97
2023-03-21T11:58:30.743Z,101273.34
2023-03-21T12:01:42.006Z,101266.34
2023-03-21T12:04:36.966Z,101261.13
2023-03-21T12:07:28.055Z,101253.28
2023-03-21T12:10:28.135Z,101254.13
2023-03-21T12:13:17.033Z,101253.28
2023-03-21T12:16:13.694Z,101245.38
2023-03-21T12:19:12.103Z,101254.09
2023-03-21T12:22:16.268Z,101246.28
2023-03-21T12:24:54.868Z,101240.13
2023-03-21T12:27:30.702Z,101240.13
2023-03-21T12:30:53.683Z,101245.34
2023-03-21T12:33:32.280Z,101234.84
2023-03-21T12:36:17.738Z,101231.34
2023-03-21T12:39:18.022Z,101222.63
2023-03-21T12:42:02.447Z,101218.22
2023-03-21T12:44:37.784Z,101214.69
2023-03-21T12:47:15.947Z,101221.66
2023-03-21T12:50:12.833Z,101197.19
2023-03-21T12:52:44.558Z,101202.41
2023-03-21T12:55:21.524Z,101202.38
2023-03-21T12:58:04.880Z,101206.75
2023-03-21T13:00:38.861Z,101203.25
2023-03-21T13:03:13.370Z,101199.75
2023-03-21T13:05:55.963Z,101198.84
2023-03-21T13:08:57.733Z,101191.84
2023-03-21T13:11:29.227Z,101193.59
2023-03-21T13:14:06.611Z,101195.31
2023-03-21T13:17:00.536Z,101186.56
2023-03-21T13:20:00.879Z,101183.06
2023-03-21T13:22:31.509Z,101181.34
2023-03-21T13:25:16.293Z,101173.47
2023-03-21T13:27:46.162Z,101170.84
2023-03-21T13:30:28.526Z,101167.34
2023-03-21T13:33:13.534Z,101161.28
2023-03-21T13:35:44.241Z,101165.63
2023-03-21T13:38:25.894Z,101159.53
2023-03-21T13:40:59.025Z,101156.91
2023-03-21T13:43:54.902Z,101156.06
2023-03-21T13:46:38.145Z,101163.94
2023-03-21T13:49:10.198Z,101149.97
2023-03-21T13:51:37.065Z,101153.47
2023-03-21T13:54:19.426Z,101145.63
2023-03-21T13:56:50.042Z,101148.25
2023-03-21T13:59:43.173Z,101141.28
2023-03-21T14:02:33.692Z,101138.69
2023-03-21T14:05:07.930Z,101130.78
2023-03-21T14:07:44.380Z,101143.00
2023-03-21T14:10:28.447Z,101125.56
2023-03-21T14:12:55.604Z,101128.19
2023-03-21T14:15:31.111Z,101127.25
2023-03-21T14:18:15.803Z,101122.00
2023-03-21T14:20:57.190Z,101124.59
2023-03-21T14:23:24.552Z,101118.47
2023-03-21T14:25:52.616Z,101111.50
2023-03-21T14:28:29.518Z,101116.72
2023-03-21T14:31:00.461Z,101110.59
2023-03-21T14:33:39.530Z,101121.94
2023-03-21T14:36:17.030Z,101116.69
2023-03-21T14:38:47.147Z,101111.41
2023-03-21T14:41:25.563Z,101106.16
2023-03-21T14:44:27.898Z,101103.56
2023-03-21T14:47:05.816Z,101104.44
2023-03-21T14:49:36.579Z,101100.09
2023-03-21T14:52:09.967Z,101094.00
2023-03-21T14:54:41.153Z,101085.25
2023-03-21T14:57:14.281Z,101090.50
2023-03-21T14:59:42.212Z,101084.38
2023-03-21T15:02:20.437Z,101092.28
2023-03-21T15:04:54.424Z,101083.56
2023-03-21T15:07:34.697Z,101086.16
2023-03-21T15:10:07.563Z,101085.31
2023-03-21T15:12:34.566Z,101084.44
2023-03-21T15:15:03.153Z,101075.72
2023-03-21T15:17:30.594Z,101074.81
2023-03-21T15:19:57.549Z,101073.94
2023-03-21T15:22:39.622Z,101076.53
2023-03-21T15:25:14.040Z,101073.06
2023-03-21T15:27:43.200Z,101073.97
2023-03-21T15:30:24.084Z,101074.81
2023-03-21T15:32:51.589Z,101077.47
2023-03-21T15:35:39.079Z,101076.59
2023-03-21T15:38:06.793Z,101069.63
2023-03-21T15:40:35.879Z,101075.75
2023-03-21T15:43:17.852Z,101067.06
2023-03-21T15:45:56.187Z,101060.09
2023-03-21T15:48:28.666Z,101048.72
2023-03-21T15:50:55.564Z,101047.84
2023-03-21T15:53:24.371Z,101049.59
2023-03-21T15:55:56.908Z,101044.34
2023-03-21T15:58:34.659Z,101049.59
2023-03-21T16:01:08.320Z,101038.25
2023-03-21T16:03:37.786Z,101040.00
2023-03-21T16:06:12.477Z,101036.47
2023-03-21T16:08:53.752Z,101038.22
2023-03-21T16:11:28.281Z,101029.53
2023-03-21T16:13:56.644Z,101029.56
2023-03-21T16:16:27.445Z,101030.44
2023-03-21T16:18:57.097Z,101026.06
2023-03-21T16:21:30.631Z,101024.31
2023-03-21T16:23:58.378Z,101020.88
2023-03-21T16:26:32.411Z,101024.38
2023-03-21T16:28:59.661Z,101036.63
2023-03-21T16:31:30.394Z,101037.47
2023-03-21T16:33:57.450Z,101035.75
2023-03-21T16:36:26.197Z,101040.16
2023-03-21T16:38:54.034Z,101034.03
2023-03-21T16:41:23.691Z,101033.19
2023-03-21T16:43:52.162Z,101038.38
2023-03-21T16:46:25.788Z,101044.50
2023-03-21T16:48:56.472Z,101032.28
2023-03-21T16:51:30.251Z,101041.06
2023-03-21T16:53:57.880Z,101041.91
2023-03-21T16:56:39.886Z,101035.84
2023-03-21T16:59:08.021Z,101036.69
2023-03-21T17:01:38.343Z,101036.72
2023-03-21T17:04:05.930Z,101035.84
2023-03-21T17:06:33.306Z,101028.84
2023-03-21T17:09:00.541Z,101039.34
2023-03-21T17:11:31.471Z,101046.34
2023-03-21T17:13:58.398Z,101039.38
2023-03-21T17:16:27.223Z,101038.53
2023-03-21T17:18:54.750Z,101035.91
2023-03-21T17:21:28.186Z,101038.53
2023-03-21T17:23:56.278Z,101034.13
2023-03-21T17:26:27.445Z,101036.81
2023-03-21T17:28:56.952Z,101039.44
2023-03-21T17:31:26.241Z,101032.47
2023-03-21T17:33:53.141Z,101029.84
2023-03-21T17:36:28.342Z,101032.47
2023-03-21T17:38:55.427Z,101032.47
2023-03-21T17:41:22.790Z,101024.63
2023-03-21T17:43:51.556Z,101032.47
2023-03-21T17:46:25.113Z,101023.78
2023-03-21T17:48:52.464Z,101032.50
2023-03-21T17:51:19.756Z,101028.13
2023-03-21T17:53:50.646Z,101026.38
2023-03-21T17:56:23.100Z,101022.03
2023-03-21T17:58:50.139Z,101022.03
2023-03-21T18:01:17.039Z,101022.03
2023-03-21T18:03:44.001Z,101026.41
2023-03-21T18:06:18.088Z,101023.81
2023-03-21T18:08:46.196Z,101020.31
2023-03-21T18:11:13.900Z,101015.97
2023-03-21T18:13:42.127Z,101010.72
2023-03-21T18:16:17.164Z,101011.63
2023-03-21T18:18:46.363Z,101019.47
2023-03-21T18:21:19.483Z,101008.13
2023-03-21T18:23:47.614Z,101007.25
2023-03-21T18:26:23.841Z,101005.50
2023-03-21T18:29:36.780Z,101003.75
2023-03-21T18:31:38.161Z,101005.53
2023-03-21T18:34:05.189Z,101004.66
2023-03-21T18:36:32.168Z,101004.63
2023-03-21T18:38:59.093Z,100999.41
2023-03-21T18:41:25.978Z,100997.69
2023-03-21T18:44:05.536Z,100992.47
2023-03-21T18:46:41.728Z,101001.19
2023-03-21T18:49:51.942Z,101001.19
2023-03-21T18:51:55.880Z,101001.19
2023-03-21T18:54:23.448Z,101003.81
2023-03-21T18:57:34.184Z,100998.59
2023-03-21T18:59:39.200Z,100998.59
2023-03-21T19:02:07.153Z,101004.69
2023-03-21T19:04:34.252Z,100998.59
2023-03-21T19:07:01.274Z,100995.13
2023-03-21T19:09:31.919Z,100997.75
2023-03-21T19:12:03.149Z,101003.84
2023-03-21T19:14:30.463Z,100994.25
2023-03-21T19:19:45.983Z,100993.41
2023-03-21T19:22:12.943Z,101003.00
2023-03-21T19:24:40.553Z,100996.88
2023-03-21T19:27:07.625Z,101001.28
2023-03-21T19:29:34.530Z,100998.66
2023-03-21T19:32:01.505Z,100996.91
2023-03-21T19:34:29.341Z,100994.31
2023-03-21T19:36:57.378Z,100987.34
2023-03-21T19:39:25.065Z,100991.69
2023-03-21T19:41:55.379Z,100995.19
2023-03-21T19:44:32.727Z,100986.47
2023-03-21T19:46:59.646Z,100994.31
2023-03-21T19:49:48.569Z,100982.13
2023-03-21T19:52:13.465Z,100988.19
2023-03-21T19:54:40.461Z,100976.91
2023-03-21T19:57:09.625Z,100982.13
2023-03-21T19:59:36.541Z,100971.66
2023-03-21T20:02:27.133Z,100977.75
2023-03-21T20:04:51.447Z,100980.38
2023-03-21T20:07:18.365Z,100980.41
2023-03-21T20:09:52.848Z,100970.78
2023-03-21T20:12:21.900Z,100965.56
2023-03-21T20:14:49.237Z,100967.31
2023-03-21T20:17:16.770Z,100957.75
2023-03-21T20:19:43.786Z,100959.47
2023-03-21T20:22:21.862Z,100960.38
2023-03-21T20:24:55.525Z,100956.00
2023-03-21T20:27:25.237Z,100965.59
2023-03-21T20:30:10.148Z,100959.50
2023-03-21T20:32:43.762Z,100963.00
2023-03-21T20:35:21.119Z,100960.34
2023-03-21T20:37:54.381Z,100956.88
2023-03-21T20:40:21.630Z,100944.69
2023-03-21T20:42:49.131Z,100956.00
2023-03-21T20:45:17.298Z,100947.28
2023-03-21T20:47:44.250Z,100944.69
2023-03-21T20:50:13.875Z,100936.00
2023-03-21T20:53:04.521Z,100940.34
2023-03-21T20:55:34.210Z,100946.44
2023-03-21T20:58:02.221Z,100955.16
2023-03-21T21:00:29.804Z,100962.13
2023-03-21T21:02:58.018Z,100966.50
2023-03-21T21:05:30.714Z,100965.63
2023-03-21T21:07:58.898Z,100965.59
2023-03-21T21:10:26.229Z,100967.34
2023-03-21T21:12:53.240Z,100969.97
2023-03-21T21:15:20.121Z,100969.97
2023-03-21T21:18:17.786Z,100968.22
2023-03-21T21:20:36.887Z,100965.59
2023-03-21T21:23:04.925Z,100974.31
2023-03-21T21:25:33.475Z,100964.75
2023-03-21T21:28:08.893Z,100957.78
2023-03-21T21:30:38.635Z,100971.72
2023-03-21T21:33:05.729Z,100965.59
2023-03-21T21:35:33.638Z,100965.59
2023-03-21T21:38:00.598Z,100956.94
2023-03-21T21:40:27.495Z,100958.66
2023-03-21T21:42:54.628Z,100955.19
2023-03-21T21:45:21.576Z,100961.25
2023-03-21T21:47:48.617Z,100956.06
2023-03-21T21:50:15.532Z,100950.81
2023-03-21T21:52:52.609Z,100949.94
2023-03-21T21:55:19.767Z,100939.47
2023-03-21T21:57:50.268Z,100942.97
2023-03-21T22:00:19.690Z,100930.78
2023-03-21T22:02:47.149Z,100933.41
2023-03-21T22:05:14.079Z,100935.13
2023-03-21T22:07:41.152Z,100936.88
2023-03-21T22:10:08.671Z,100933.41
2023-03-21T22:12:35.625Z,100923.84
2023-03-21T22:15:06.884Z,100916.84
2023-03-21T22:17:35.148Z,100922.06
2023-03-21T22:20:06.488Z,100915.97
2023-03-21T22:22:34.697Z,100920.34
2023-03-21T22:25:02.490Z,100921.19
2023-03-21T22:27:29.752Z,100911.63
2023-03-21T22:29:56.630Z,100917.72
2023-03-21T22:32:23.711Z,100913.38
2023-03-21T22:34:50.635Z,100905.53
2023-03-21T22:37:17.543Z,100910.75
2023-03-21T22:39:44.431Z,100909.00
2023-03-21T22:42:11.324Z,100904.66
2023-03-21T22:44:38.279Z,100902.91
2023-03-21T22:47:10.950Z,100914.22
2023-03-21T22:49:39.004Z,100912.50
2023-03-21T22:52:06.816Z,100913.38
2023-03-21T22:54:33.779Z,100909.03
2023-03-21T22:57:00.705Z,100906.41
2023-03-21T22:59:28.667Z,100905.53
2023-03-21T23:01:55.656Z,100912.50
2023-03-21T23:04:23.770Z,100899.47
2023-03-21T23:06:50.852Z,100903.81
2023-03-21T23:09:17.968Z,100886.41
2023-03-21T23:11:48.974Z,100901.19
2023-03-21T23:14:17.921Z,100894.22
2023-03-21T23:16:45.108Z,100888.97
2023-03-21T23:19:12.245Z,100889.84
2023-03-21T23:21:39.844Z,100894.22
2023-03-21T23:24:07.978Z,100882.03
2023-03-21T23:26:35.255Z,100888.97
2023-03-21T23:29:02.117Z,100892.47
2023-03-21T23:31:29.075Z,100875.06
2023-03-21T23:33:58.923Z,100881.16
2023-03-21T23:36:26.066Z,100866.34
2023-03-21T23:38:53.211Z,100872.44
2023-03-21T23:41:23.376Z,100870.72
2023-03-21T23:43:51.076Z,100876.81
2023-03-21T23:46:19.067Z,100880.28
2023-03-21T23:48:46.985Z,100877.66
2023-03-21T23:51:16.451Z,100868.97
2023-03-21T23:53:45.530Z,100875.94
2023-03-21T23:56:19.104Z,100871.56
2023-03-21T23:58:46.937Z,100875.06
